Time;durP1;ratioP1;P1;durP2;ratioP2;P2;SDS_P1;SDS_P2;PMS_P1;PMS_P2;Temp;Humidity;BMP_temperature;BMP_pressure;BME280_temperature;BME280_humidity;BME280_pressure;Samples;Min_cycle;Max_cycle;Signal;HPM_P1;HPM_P2
2023/04/15 00:01:53;;;;;;;17.60;10.10;;;;;;;6.91;100.00;100723.97;5027867;28;20472;-82
2023/04/15 00:04:20;;;;;;;15.38;9.90;;;;;;;6.91;100.00;100718.66;5016723;28;20029;-82
2023/04/15 00:06:53;;;;;;;25.35;10.82;;;;;;;6.96;100.00;100725.50;5053101;28;20151;-82
2023/04/15 00:09:20;;;;;;;15.63;9.15;;;;;;;7.02;100.00;100734.13;5015910;28;20490;-81
2023/04/15 00:11:46;;;;;;;14.95;9.07;;;;;;;7.07;100.00;100729.50;5022441;28;20405;-81
2023/04/15 00:14:13;;;;;;;14.32;9.27;;;;;;;7.11;100.00;100731.09;4997023;28;20470;-80
2023/04/15 00:16:40;;;;;;;18.27;9.00;;;;;;;7.14;100.00;100723.00;5031659;28;20414;-82
2023/04/15 00:19:06;;;;;;;15.02;8.98;;;;;;;7.14;100.00;100725.66;5014219;28;20048;-82
2023/04/15 00:21:33;;;;;;;22.00;9.10;;;;;;;7.22;100.00;100731.50;5014116;28;20037;-82
2023/04/15 00:24:00;;;;;;;20.05;9.73;;;;;;;7.26;100.00;100726.91;5048363;28;20020;-81
2023/04/15 00:26:26;;;;;;;16.48;8.90;;;;;;;7.27;100.00;100732.16;5048866;28;20088;-80
2023/04/15 00:28:53;;;;;;;13.15;8.77;;;;;;;7.32;100.00;100726.63;5042428;28;20041;-81
2023/04/15 00:31:19;;;;;;;14.13;8.63;;;;;;;7.29;100.00;100724.13;5018400;28;20402;-81
2023/04/15 00:33:45;;;;;;;19.17;9.65;;;;;;;7.29;100.00;100724.97;5034347;28;20103;-82
2023/04/15 00:36:12;;;;;;;19.17;9.15;;;;;;;7.29;100.00;100729.44;5016576;28;20033;-81
2023/04/15 00:38:38;;;;;;;18.42;9.23;;;;;;;7.27;100.00;100721.53;5018138;28;20036;-81
2023/04/15 00:41:05;;;;;;;18.38;9.70;;;;;;;7.26;100.00;100730.41;5032298;28;20434;-81
2023/04/15 00:43:31;;;;;;;19.88;9.07;;;;;;;7.27;100.00;100729.50;5001878;28;20389;-81
2023/04/15 00:45:58;;;;;;;16.55;8.90;;;;;;;7.22;100.00;100727.97;5031789;28;20051;-81
2023/04/15 00:48:26;;;;;;;18.77;9.95;;;;;;;7.16;100.00;100729.09;5019528;28;20056;-82
2023/04/15 00:50:52;;;;;;;18.02;9.98;;;;;;;7.03;100.00;100733.22;5021302;28;20025;-81
2023/04/15 00:53:18;;;;;;;16.52;8.93;;;;;;;6.90;100.00;100733.72;5030381;28;20040;-80
2023/04/15 00:55:45;;;;;;;18.50;9.63;;;;;;;6.84;100.00;100733.09;5047746;28;20471;-81
2023/04/15 00:58:11;;;;;;;17.30;10.10;;;;;;;6.76;100.00;100736.06;5023818;28;20134;-81
2023/04/15 01:00:37;;;;;;;12.95;9.40;;;;;;;6.66;100.00;100735.59;5051412;28;20040;-81
2023/04/15 01:03:03;;;;;;;16.25;9.68;;;;;;;6.54;100.00;100738.72;5015356;28;20440;-80
2023/04/15 01:05:30;;;;;;;17.92;10.10;;;;;;;6.48;100.00;100731.88;5035508;28;20140;-81
2023/04/15 01:07:56;;;;;;;18.45;9.93;;;;;;;6.46;100.00;100733.75;5029890;28;20394;-82
2023/04/15 01:10:23;;;;;;;16.98;10.10;;;;;;;6.52;100.00;100730.88;5029198;28;20040;-82
2023/04/15 01:12:49;;;;;;;15.25;9.77;;;;;;;6.61;100.00;100732.25;5005613;28;20120;-81
2023/04/15 01:15:15;;;;;;;18.85;10.25;;;;;;;6.70;100.00;100728.38;5027761;28;20121;-81
2023/04/15 01:17:42;;;;;;;16.15;9.30;;;;;;;6.73;100.00;100736.22;5017960;28;21018;-82
2023/04/15 01:20:11;;;;;;;19.00;10.20;;;;;;;6.68;100.00;100731.09;5026784;28;20331;-81
2023/04/15 01:22:38;;;;;;;16.38;10.10;;;;;;;6.65;100.00;100738.31;5048894;28;20410;-82
2023/04/15 01:25:12;;;;;;;15.82;9.73;;;;;;;6.63;100.00;100735.72;5016832;28;20191;-81
2023/04/15 01:27:38;;;;;;;;;;;;;;;6.57;100.00;100731.53;5015519;28;20612;-81
2023/04/15 01:30:07;;;;;;;16.85;10.35;;;;;;;6.46;100.00;100728.44;5015343;28;20020;-81
2023/04/15 01:32:33;;;;;;;16.25;10.43;;;;;;;6.34;100.00;100729.81;5012540;28;20421;-83
2023/04/15 01:35:00;;;;;;;16.27;10.35;;;;;;;6.29;100.00;100725.59;4978135;28;20491;-82
2023/04/15 01:37:26;;;;;;;21.80;9.88;;;;;;;6.23;100.00;100731.16;4999056;28;20037;-81
2023/04/15 01:39:52;;;;;;;19.40;11.02;;;;;;;6.15;100.00;100729.66;5030910;28;20043;-81
2023/04/15 01:42:20;;;;;;;19.80;10.20;;;;;;;6.07;100.00;100731.72;5017483;28;20069;-82
2023/04/15 01:44:48;;;;;;;19.33;10.63;;;;;;;6.04;100.00;100734.53;5015850;28;20029;-82
2023/04/15 01:47:14;;;;;;;18.08;10.95;;;;;;;6.02;100.00;100739.00;5015929;28;20105;-82
2023/04/15 01:49:41;;;;;;;17.23;11.35;;;;;;;5.98;100.00;100737.38;5031456;28;20390;-81
2023/04/15 01:52:07;;;;;;;17.05;10.95;;;;;;;5.96;100.00;100733.94;5016546;28;20037;-83
2023/04/15 01:54:34;;;;;;;18.42;11.35;;;;;;;5.91;100.00;100735.84;5027383;28;20040;-81
2023/04/15 01:57:01;;;;;;;18.77;11.15;;;;;;;5.87;100.00;100737.78;5012909;28;20037;-82
2023/04/15 01:59:27;;;;;;;16.65;11.25;;;;;;;5.81;100.00;100740.63;5015479;28;20040;-82
2023/04/15 02:01:54;;;;;;;19.75;12.48;;;;;;;5.73;100.00;100740.91;5030029;28;20044;-82
2023/04/15 02:04:20;;;;;;;22.38;12.38;;;;;;;5.69;100.00;100741.97;5027074;28;20029;-81
2023/04/15 02:06:46;;;;;;;16.58;10.93;;;;;;;5.62;100.00;100737.81;5037778;28;20032;-81
2023/04/15 02:09:13;;;;;;;24.30;11.77;;;;;;;5.53;100.00;100744.28;4995862;28;20048;-81
2023/04/15 02:11:39;;;;;;;20.45;11.45;;;;;;;5.42;100.00;100747.34;5020333;28;20059;-81
2023/04/15 02:14:06;;;;;;;20.10;11.70;;;;;;;5.32;100.00;100748.56;5037954;28;20506;-81
2023/04/15 02:16:32;;;;;;;16.75;11.27;;;;;;;5.26;100.00;100748.78;5026025;28;20041;-82
2023/04/15 02:19:02;;;;;;;22.23;11.27;;;;;;;5.22;100.00;100747.19;5022407;28;20037;-81
2023/04/15 02:21:34;;;;;;;18.92;11.57;;;;;;;5.17;100.00;100749.13;5019698;28;20103;-82
2023/04/15 02:24:01;;;;;;;;;;;;;;;5.14;100.00;100749.22;4995285;28;20065;-82
2023/04/15 02:26:30;;;;;;;21.98;11.60;;;;;;;5.03;100.00;100753.09;5043279;28;19939;-82
2023/04/15 02:28:57;;;;;;;17.95;12.52;;;;;;;4.98;100.00;100752.38;5023559;28;20051;-82
2023/04/15 02:31:24;;;;;;;18.95;11.68;;;;;;;4.93;100.00;100761.38;5047878;28;20037;-84
2023/04/15 02:33:51;;;;;;;18.25;12.13;;;;;;;4.93;100.00;100764.91;5026729;28;20039;-81
2023/04/15 02:36:19;;;;;;;20.33;12.75;;;;;;;4.93;100.00;100766.69;5013426;28;20037;-81
2023/04/15 02:38:46;;;;;;;23.25;11.82;;;;;;;4.93;100.00;100771.97;5018302;28;20375;-82
2023/04/15 02:41:14;;;;;;;19.92;12.38;;;;;;;4.93;100.00;100770.19;5017719;28;20031;-81
2023/04/15 02:43:40;;;;;;;24.85;13.52;;;;;;;4.93;100.00;100767.53;5011224;28;20033;-82
2023/04/15 02:46:13;;;;;;;22.98;13.57;;;;;;;4.93;100.00;100769.31;5023506;28;20048;-82
2023/04/15 02:48:39;;;;;;;20.15;12.93;;;;;;;4.93;100.00;100770.19;5024171;28;20409;-81
2023/04/15 02:51:18;;;;;;;19.52;13.60;;;;;;;4.89;100.00;100771.22;5013521;28;20064;-81
2023/04/15 02:53:46;;;;;;;22.88;13.23;;;;;;;4.85;100.00;100774.88;5028152;28;20042;-81
2023/04/15 02:56:14;;;;;;;22.42;14.07;;;;;;;4.80;100.00;100776.78;5004955;28;20032;-81
2023/04/15 02:58:40;;;;;;;24.55;13.20;;;;;;;4.78;100.00;100786.56;5027000;28;20056;-82
2023/04/15 03:01:07;;;;;;;27.83;14.40;;;;;;;4.75;100.00;100778.72;5023958;28;20402;-82
2023/04/15 03:03:34;;;;;;;26.80;15.65;;;;;;;4.78;100.00;100783.91;5021977;28;20106;-82
2023/04/15 03:06:00;;;;;;;27.90;15.07;;;;;;;4.79;100.00;100785.63;5009758;28;20374;-82
2023/04/15 03:08:27;;;;;;;23.88;14.70;;;;;;;4.79;100.00;100780.34;5014973;28;20024;-85
2023/04/15 03:10:59;;;;;;;25.85;13.55;;;;;;;4.91;100.00;100787.88;5013995;28;20051;-83
2023/04/15 03:13:26;;;;;;;22.63;13.43;;;;;;;4.94;100.00;100789.56;5006485;28;20493;-82
2023/04/15 03:15:53;;;;;;;27.15;13.98;;;;;;;4.99;100.00;100787.63;5011522;28;20083;-83
2023/04/15 03:18:22;;;;;;;24.05;14.98;;;;;;;4.97;100.00;100790.31;5024591;28;20044;-81
2023/04/15 03:20:49;;;;;;;22.92;14.48;;;;;;;4.96;100.00;100793.03;5024641;28;20046;-82
2023/04/15 03:23:15;;;;;;;23.67;14.50;;;;;;;4.94;100.00;100793.09;5012572;28;20047;-81
2023/04/15 03:25:41;;;;;;;24.45;14.00;;;;;;;4.94;100.00;100793.09;5001152;28;20152;-83
2023/04/15 03:28:08;;;;;;;22.38;14.63;;;;;;;4.93;100.00;100796.63;5028008;28;20044;-83
2023/04/15 03:30:34;;;;;;;21.70;14.10;;;;;;;4.92;100.00;100799.31;5029336;28;20091;-82
2023/04/15 03:33:00;;;;;;;21.55;13.88;;;;;;;4.90;100.00;100807.31;5023500;28;20052;-83
2023/04/15 03:35:30;;;;;;;29.48;15.48;;;;;;;4.93;100.00;100809.88;5034530;28;20079;-83
2023/04/15 03:37:56;;;;;;;24.55;14.38;;;;;;;4.91;100.00;100809.06;5027578;28;20032;-82
2023/04/15 03:40:22;;;;;;;25.40;14.75;;;;;;;4.88;100.00;100811.78;5024075;28;20037;-82
2023/04/15 03:42:48;;;;;;;20.27;13.85;;;;;;;4.84;100.00;100812.81;5035796;28;20124;-82
2023/04/15 03:45:17;;;;;;;24.00;13.93;;;;;;;4.81;100.00;100811.13;5033245;28;20035;-83
2023/04/15 03:47:44;;;;;;;26.27;14.23;;;;;;;4.78;100.00;100813.00;5030832;28;20536;-82
2023/04/15 03:50:10;;;;;;;24.38;13.88;;;;;;;4.73;100.00;100814.94;5034793;28;20092;-82
2023/04/15 03:52:36;;;;;;;23.63;14.38;;;;;;;4.70;100.00;100821.19;5031387;28;20042;-81
2023/04/15 03:55:03;;;;;;;24.48;14.55;;;;;;;4.64;100.00;100824.00;5033722;28;20041;-83
2023/04/15 03:57:30;;;;;;;23.58;14.90;;;;;;;4.57;100.00;100822.50;5028691;28;20429;-82
2023/04/15 03:59:56;;;;;;;23.20;14.60;;;;;;;4.48;100.00;100831.56;5026304;28;20498;-81
2023/04/15 04:02:22;;;;;;;23.80;15.27;;;;;;;4.41;100.00;100833.50;5019498;28;20485;-81
2023/04/15 04:04:48;;;;;;;28.80;15.98;;;;;;;4.41;100.00;100832.66;5030460;28;20536;-81
2023/04/15 04:07:15;;;;;;;26.95;14.85;;;;;;;4.38;100.00;100843.31;5006182;28;20064;-81
2023/04/15 04:09:42;;;;;;;25.38;16.13;;;;;;;4.38;100.00;100843.31;5018955;28;20041;-82
2023/04/15 04:12:08;;;;;;;25.67;15.93;;;;;;;4.34;100.00;100841.66;5050331;28;20029;-81
2023/04/15 04:14:34;;;;;;;26.15;16.48;;;;;;;4.28;100.00;100848.00;5014588;28;20090;-81
2023/04/15 04:17:01;;;;;;;34.17;16.88;;;;;;;4.20;100.00;100845.59;5028862;28;21903;-81
2023/04/15 04:19:28;;;;;;;29.85;16.50;;;;;;;4.14;100.00;100851.06;5044182;28;20800;-81
2023/04/15 04:21:55;;;;;;;32.38;16.85;;;;;;;4.10;100.00;100851.16;5049929;28;20055;-81
2023/04/15 04:24:21;;;;;;;27.98;17.73;;;;;;;4.07;100.00;100847.72;5025995;28;20033;-81
2023/04/15 04:26:47;;;;;;;30.15;17.15;;;;;;;4.03;100.00;100854.00;5036092;28;20040;-81
2023/04/15 04:29:13;;;;;;;44.50;17.70;;;;;;;4.03;100.00;100861.91;5009486;28;20585;-83
2023/04/15 04:31:40;;;;;;;30.48;17.83;;;;;;;4.05;100.00;100861.88;5017423;28;20041;-82
2023/04/15 04:34:06;;;;;;;36.70;18.40;;;;;;;4.02;100.00;100862.81;5022208;28;20029;-82
2023/04/15 04:36:32;;;;;;;32.03;19.05;;;;;;;3.99;100.00;100867.31;5036084;28;20073;-82
2023/04/15 04:39:00;;;;;;;34.35;19.17;;;;;;;3.97;100.00;100870.03;5033823;28;20041;-81
2023/04/15 04:41:26;;;;;;;32.92;18.27;;;;;;;3.96;100.00;100872.69;5030502;28;20039;-83
2023/04/15 04:43:52;;;;;;;33.90;19.10;;;;;;;3.96;100.00;100875.34;5013416;28;20032;-81
2023/04/15 04:46:19;;;;;;;35.85;19.90;;;;;;;3.94;100.00;100875.38;5031108;28;20037;-82
2023/04/15 04:48:45;;;;;;;36.33;19.98;;;;;;;3.92;100.00;100886.91;5027058;28;22017;-82
2023/04/15 04:51:11;;;;;;;29.98;18.00;;;;;;;3.95;100.00;100887.69;5034886;28;20045;-81
2023/04/15 04:53:38;;;;;;;31.63;19.27;;;;;;;3.97;100.00;100895.56;5029280;28;20074;-82
2023/04/15 04:56:04;;;;;;;36.78;20.00;;;;;;;3.99;100.00;100901.66;5011655;28;20029;-82
2023/04/15 04:58:30;;;;;;;35.38;18.50;;;;;;;3.96;100.00;100904.41;5014296;28;20036;-81
2023/04/15 05:00:57;;;;;;;30.83;19.17;;;;;;;3.95;100.00;100900.00;5038811;28;20050;-82
2023/04/15 05:03:23;;;;;;;37.30;20.90;;;;;;;3.97;100.00;100906.13;5035285;28;20481;-82
2023/04/15 05:05:50;;;;;;;36.72;20.48;;;;;;;4.03;100.00;100912.09;5013229;28;20043;-82
2023/04/15 05:08:16;;;;;;;38.70;20.48;;;;;;;4.13;100.00;100912.72;5008947;28;20072;-82
2023/04/15 05:10:42;;;;;;;41.03;22.35;;;;;;;4.23;100.00;100916.84;4996897;28;20075;-83
2023/04/15 05:13:08;;;;;;;35.70;20.73;;;;;;;4.24;100.00;100902.72;5022558;28;20147;-83
2023/04/15 05:15:37;;;;;;;34.83;18.98;;;;;;;4.43;100.00;100921.56;5014350;28;20084;-81
2023/04/15 05:18:04;;;;;;;32.78;19.05;;;;;;;4.55;100.00;100924.75;5006595;28;20482;-81
2023/04/15 05:20:30;;;;;;;38.03;20.15;;;;;;;4.66;100.00;100928.84;5027288;28;21119;-84
2023/04/15 05:22:56;;;;;;;31.33;17.73;;;;;;;4.76;100.00;100941.78;5030409;28;20596;-82
2023/04/15 05:25:22;;;;;;;33.45;18.92;;;;;;;4.80;100.00;100952.22;5051347;28;20186;-83
2023/04/15 05:27:49;;;;;;;30.85;18.42;;;;;;;4.87;100.00;100947.63;5048841;28;20041;-82
2023/04/15 05:30:15;;;;;;;31.23;18.33;;;;;;;4.93;100.00;100949.22;5030107;28;20440;-82
2023/04/15 05:32:41;;;;;;;37.28;19.33;;;;;;;5.02;100.00;100963.03;5014783;28;20064;-82
2023/04/15 05:35:08;;;;;;;27.75;18.05;;;;;;;5.09;100.00;100966.38;5020171;28;20108;-83
2023/04/15 05:37:35;;;;;;;27.92;17.55;;;;;;;5.17;100.00;100966.97;5015236;28;20144;-83
2023/04/15 05:40:01;;;;;;;28.85;17.52;;;;;;;5.30;100.00;100971.91;5027205;28;20061;-81
2023/04/15 05:42:27;;;;;;;25.13;16.05;;;;;;;5.44;100.00;100977.59;5032551;28;20037;-82
2023/04/15 05:44:53;;;;;;;23.48;15.65;;;;;;;5.69;100.00;100980.34;5012821;28;20070;-82
2023/04/15 05:47:20;;;;;;;26.52;14.48;;;;;;;6.10;100.00;100983.41;5014710;28;20036;-82
2023/04/15 05:49:46;;;;;;;20.70;14.32;;;;;;;6.50;100.00;100995.25;5016104;28;20530;-83
2023/04/15 05:52:12;;;;;;;19.60;13.82;;;;;;;6.89;100.00;100989.38;5010390;28;20064;-81
2023/04/15 05:54:38;;;;;;;20.73;12.23;;;;;;;7.34;100.00;101004.50;5025815;28;20033;-82
2023/04/15 05:57:05;;;;;;;20.48;12.27;;;;;;;7.79;100.00;100999.16;5007169;28;20045;-82
2023/04/15 05:59:33;;;;;;;17.58;11.88;;;;;;;7.95;100.00;101000.25;5026343;28;20448;-81
2023/04/15 06:01:59;;;;;;;16.50;11.77;;;;;;;8.18;100.00;101006.41;5046451;28;20397;-83
2023/04/15 06:04:25;;;;;;;15.15;10.45;;;;;;;8.47;100.00;101008.69;5041255;28;20025;-82
2023/04/15 06:06:51;;;;;;;16.13;11.52;;;;;;;8.53;100.00;101020.84;5009973;28;20590;-80
2023/04/15 06:09:18;;;;;;;15.55;11.00;;;;;;;8.65;100.00;101027.47;5032289;28;20064;-82
2023/04/15 06:11:44;;;;;;;21.33;12.25;;;;;;;8.76;100.00;101032.28;5017362;28;20128;-81
2023/04/15 06:14:10;;;;;;;15.00;10.63;;;;;;;9.01;100.00;101035.56;5014396;28;20080;-81
2023/04/15 06:16:36;;;;;;;16.52;11.32;;;;;;;8.90;100.00;101044.03;5041235;28;20099;-81
2023/04/15 06:19:03;;;;;;;16.45;11.48;;;;;;;8.85;100.00;101043.41;5018565;28;20048;-82
2023/04/15 06:21:30;;;;;;;16.88;11.25;;;;;;;8.74;100.00;101048.31;5030226;28;20033;-82
2023/04/15 06:23:57;;;;;;;17.70;11.60;;;;;;;8.58;100.00;101052.59;5015332;28;20041;-81
2023/04/15 06:26:23;;;;;;;18.23;12.40;;;;;;;8.58;100.00;101056.13;5019780;28;20056;-81
2023/04/15 06:28:51;;;;;;;19.88;12.10;;;;;;;8.59;100.00;101056.97;5023017;28;20037;-80
2023/04/15 06:31:17;;;;;;;19.15;12.90;;;;;;;8.54;100.00;101068.69;5017446;28;20044;-80
2023/04/15 06:33:44;;;;;;;21.80;12.10;;;;;;;8.47;100.00;101067.22;5016321;28;20060;-80
2023/04/15 06:36:10;;;;;;;19.08;13.50;;;;;;;8.60;100.00;101077.34;5011080;28;20073;-86
2023/04/15 06:38:37;;;;;;;23.45;11.90;;;;;;;8.52;100.00;101075.88;5047671;28;20075;-80
2023/04/15 06:41:04;;;;;;;21.50;13.80;;;;;;;8.83;100.00;101084.31;5047757;28;20040;-80
2023/04/15 06:43:30;;;;;;;16.92;12.30;;;;;;;9.13;100.00;101082.06;5034329;28;20147;-80
2023/04/15 06:45:57;;;;;;;21.25;12.27;;;;;;;9.24;100.00;101086.91;5032361;28;20029;-81
2023/04/15 06:48:23;;;;;;;19.40;13.82;;;;;;;9.45;100.00;101093.03;5016927;28;20413;-84
2023/04/15 06:50:50;;;;;;;20.15;13.73;;;;;;;9.45;100.00;101098.38;5031962;28;20044;-81
2023/04/15 06:53:17;;;;;;;31.55;14.75;;;;;;;9.58;100.00;101096.88;5016046;28;20041;-81
2023/04/15 06:55:43;;;;;;;18.50;12.93;;;;;;;9.65;100.00;101101.00;5015334;28;20555;-81
2023/04/15 06:58:10;;;;;;;18.70;12.80;;;;;;;9.73;100.00;101105.06;5031208;28;20086;-81
2023/04/15 07:00:38;;;;;;;20.23;12.95;;;;;;;9.62;100.00;101109.13;4998958;28;20502;-81
2023/04/15 07:03:04;;;;;;;20.80;13.63;;;;;;;9.67;100.00;101115.09;5034110;28;20033;-80
2023/04/15 07:05:32;;;;;;;22.45;13.63;;;;;;;9.66;100.00;101118.69;5033490;28;20041;-81
2023/04/15 07:07:59;;;;;;;23.65;14.25;;;;;;;9.57;100.00;101124.47;5050566;28;20536;-81
2023/04/15 07:10:25;;;;;;;25.45;14.45;;;;;;;9.57;100.00;101127.13;5014482;28;20084;-85
2023/04/15 07:12:51;;;;;;;19.00;14.32;;;;;;;9.63;100.00;101129.50;5015680;28;20052;-81
2023/04/15 07:15:17;;;;;;;20.33;14.38;;;;;;;9.63;100.00;101133.97;5052268;28;20126;-81
2023/04/15 07:17:44;;;;;;;24.48;15.00;;;;;;;9.74;100.00;101130.81;5030452;28;20055;-80
2023/04/15 07:20:11;;;;;;;18.35;13.38;;;;;;;9.87;100.00;101137.28;5023197;28;20051;-80
2023/04/15 07:22:38;;;;;;;21.45;13.23;;;;;;;10.02;100.00;101141.88;5051077;28;20071;-81
2023/04/15 07:25:05;;;;;;;22.35;13.43;;;;;;;10.09;100.00;101145.97;5033759;28;20523;-81
2023/04/15 07:27:31;;;;;;;17.65;13.15;;;;;;;10.17;100.00;101145.59;5035820;28;20190;-80
2023/04/15 07:29:57;;;;;;;18.63;12.63;;;;;;;10.27;100.00;101157.56;4999082;28;20383;-80
2023/04/15 07:32:24;;;;;;;17.33;12.45;;;;;;;10.25;100.00;101164.78;5033455;28;20132;-82
2023/04/15 07:34:51;;;;;;;22.25;13.82;;;;;;;10.55;100.00;101166.00;5015808;28;20161;-80
2023/04/15 07:37:17;;;;;;;20.02;12.13;;;;;;;10.79;100.00;101170.13;5017007;28;20087;-80
2023/04/15 07:39:44;;;;;;;16.25;10.93;;;;;;;10.71;100.00;101176.81;5053550;28;20105;-80
2023/04/15 07:42:10;;;;;;;15.48;11.18;;;;;;;10.75;100.00;101178.38;5035870;28;20037;-81
2023/04/15 07:44:36;;;;;;;22.10;10.85;;;;;;;10.80;100.00;101174.53;5019088;28;20542;-80
2023/04/15 07:47:03;;;;;;;14.35;9.18;;;;;;;10.60;100.00;101180.84;5035108;28;20051;-81
2023/04/15 07:49:29;;;;;;;13.13;9.75;;;;;;;10.70;100.00;101191.06;5003234;28;20120;-80
2023/04/15 07:51:56;;;;;;;13.38;9.38;;;;;;;10.78;100.00;101179.06;5046588;28;20033;-80
2023/04/15 07:54:23;;;;;;;18.52;8.90;;;;;;;10.95;100.00;101190.72;5049502;28;20398;-80
2023/04/15 07:56:49;;;;;;;13.57;8.93;;;;;;;11.08;100.00;101191.81;5045628;28;20064;-81
2023/04/15 07:59:16;;;;;;;12.05;8.15;;;;;;;11.13;100.00;101189.75;5020601;28;20048;-81
2023/04/15 08:01:43;;;;;;;12.65;8.60;;;;;;;11.32;100.00;101205.69;5007374;28;20110;-80
2023/04/15 08:04:10;;;;;;;10.68;7.75;;;;;;;11.66;100.00;101214.56;5042949;28;20036;-82
2023/04/15 08:06:38;;;;;;;11.25;8.25;;;;;;;11.80;100.00;101216.53;5001290;28;20041;-81
2023/04/15 08:09:05;;;;;;;12.35;8.40;;;;;;;12.01;100.00;101228.75;5025651;28;20455;-81
2023/04/15 08:11:32;;;;;;;11.32;8.23;;;;;;;12.25;100.00;101231.00;5029457;28;20158;-82
2023/04/15 08:13:58;;;;;;;14.55;8.43;;;;;;;12.38;100.00;101233.84;5015056;28;20501;-81
2023/04/15 08:16:28;;;;;;;12.32;8.52;;;;;;;12.51;100.00;101240.22;5046298;28;20462;-82
2023/04/15 08:18:55;;;;;;;14.77;9.63;;;;;;;12.41;100.00;101244.38;5052722;28;20049;-82
2023/04/15 08:21:22;;;;;;;15.25;10.13;;;;;;;12.26;100.00;101243.44;5015456;28;20444;-82
2023/04/15 08:23:52;;;;;;;15.63;9.82;;;;;;;12.40;100.00;101240.84;5017155;28;20057;-81
2023/04/15 08:26:19;;;;;;;15.52;10.57;;;;;;;12.57;100.00;101249.72;5017478;28;20477;-81
2023/04/15 08:28:45;;;;;;;13.15;9.43;;;;;;;12.37;100.00;101251.72;5034806;28;20040;-82
2023/04/15 08:31:16;;;;;;;18.13;9.82;;;;;;;12.15;100.00;101246.72;5002246;28;20032;-82
2023/04/15 08:33:42;;;;;;;17.10;9.75;;;;;;;12.32;100.00;101251.13;5017591;28;21472;-81
2023/04/15 08:36:09;;;;;;;16.77;9.40;;;;;;;12.45;100.00;101261.13;5010851;28;20437;-82
2023/04/15 08:38:36;;;;;;;16.90;8.80;;;;;;;12.92;100.00;101263.75;5030950;28;20132;-81
2023/04/15 08:41:11;;;;;;;13.25;8.38;;;;;;;13.13;100.00;101276.84;5014869;28;20068;-81
2023/04/15 08:44:03;;;;;;;14.23;9.23;;;;;;;13.18;100.00;101272.09;5032661;28;20029;-81
2023/04/15 08:46:32;;;;;;;16.05;8.32;;;;;;;13.33;100.00;101279.25;5031552;28;20111;-80
2023/04/15 08:48:59;;;;;;;14.27;8.15;;;;;;;13.27;100.00;101284.06;5034649;28;20119;-80
2023/04/15 08:51:27;;;;;;;10.82;7.63;;;;;;;13.72;100.00;101287.66;5014608;28;20452;-82
2023/04/15 08:53:53;;;;;;;15.32;7.45;;;;;;;14.16;100.00;101286.69;5017373;28;20036;-82
2023/04/15 08:56:24;;;;;;;12.50;6.80;;;;;;;14.58;100.00;101297.50;5017402;28;20063;-82
2023/04/15 08:58:50;;;;;;;10.77;6.47;;;;;;;14.45;100.00;101305.47;5018511;28;20037;-82
2023/04/15 09:01:17;;;;;;;12.13;6.40;;;;;;;14.72;100.00;101310.88;5014090;28;20043;-82
2023/04/15 09:03:43;;;;;;;8.38;5.93;;;;;;;14.63;100.00;101266.69;5015137;28;20128;-82
2023/04/15 09:06:10;;;;;;;9.57;5.68;;;;;;;14.91;100.00;101311.41;5000233;28;20036;-81
2023/04/15 09:08:36;;;;;;;12.63;5.55;;;;;;;14.90;100.00;101309.69;5054643;28;20620;-81
2023/04/15 09:11:03;;;;;;;9.85;5.03;;;;;;;14.42;100.00;101314.56;5040198;28;20439;-81
2023/04/15 09:13:29;;;;;;;14.63;4.90;;;;;;;14.28;100.00;101315.44;5017764;28;20029;-81
2023/04/15 09:15:57;;;;;;;9.23;5.10;;;;;;;14.54;100.00;101316.47;5049424;28;20049;-81
2023/04/15 09:18:28;;;;;;;16.52;5.10;;;;;;;14.29;100.00;101330.59;5017734;28;20063;-81
2023/04/15 09:20:55;;;;;;;18.13;5.20;;;;;;;14.60;100.00;101336.72;5016880;28;20037;-81
2023/04/15 09:23:21;;;;;;;8.88;5.90;;;;;;;14.76;100.00;101327.66;5033287;28;20398;-81
2023/04/15 09:25:49;;;;;;;12.82;5.80;;;;;;;15.08;100.00;101334.50;5016614;28;20525;-81
2023/04/15 09:28:24;;;;;;;11.30;5.47;;;;;;;14.75;100.00;101339.41;5034263;28;20072;-81
2023/04/15 09:30:56;;;;;;;8.75;5.10;;;;;;;14.52;100.00;101347.94;5050587;28;20032;-81
2023/04/15 09:33:22;;;;;;;;;;;;;;;14.49;100.00;101347.28;5033586;28;20067;-81
2023/04/15 09:36:02;;;;;;;11.68;5.72;;;;;;;14.38;100.00;101352.47;5000143;28;20011;-81
2023/04/15 09:38:29;;;;;;;14.18;6.10;;;;;;;14.58;100.00;101354.78;5033021;28;20037;-82
2023/04/15 09:40:57;;;;;;;12.60;5.63;;;;;;;14.61;100.00;101356.41;5015517;28;20124;-81
2023/04/15 09:43:36;;;;;;;8.73;5.30;;;;;;;14.60;100.00;101360.06;5015375;28;20040;-85
2023/04/15 09:46:03;;;;;;;7.32;4.50;;;;;;;15.04;100.00;101365.25;5016804;28;20041;-81
2023/04/15 09:48:30;;;;;;;8.68;4.50;;;;;;;15.28;100.00;101357.38;5033023;28;20456;-83
2023/04/15 09:51:00;;;;;;;7.25;3.03;;;;;;;14.75;100.00;101374.34;5046293;28;20067;-82
2023/04/15 09:53:27;;;;;;;5.03;3.20;;;;;;;14.05;100.00;101369.72;5015281;28;20103;-84
2023/04/15 09:55:55;;;;;;;4.72;2.95;;;;;;;14.46;100.00;101369.84;5010529;28;20040;-81
2023/04/15 09:58:26;;;;;;;4.13;2.75;;;;;;;14.35;100.00;101378.56;5034020;28;20040;-79
2023/04/15 10:00:54;;;;;;;7.97;3.45;;;;;;;15.00;100.00;101374.44;4999235;28;20043;-80
2023/04/15 10:03:24;;;;;;;4.60;2.60;;;;;;;15.28;100.00;101378.88;5036613;28;20453;-81
2023/04/15 10:05:52;;;;;;;8.98;2.80;;;;;;;15.12;100.00;101384.41;5031741;28;20449;-80
2023/04/15 10:08:25;;;;;;;7.75;3.08;;;;;;;14.93;100.00;101378.53;5034923;28;20099;-81
2023/04/15 10:10:55;;;;;;;6.93;3.35;;;;;;;14.39;100.00;101389.09;5049820;28;20116;-81
2023/04/15 10:13:23;;;;;;;6.55;3.45;;;;;;;14.31;100.00;101382.41;5033722;28;20102;-79
2023/04/15 10:16:10;;;;;;;4.57;3.40;;;;;;;14.21;100.00;101378.56;5024480;28;20056;-80
2023/04/15 10:18:39;;;;;;;4.78;3.42;;;;;;;14.28;100.00;101387.97;5029195;28;20029;-80
2023/04/15 10:21:06;;;;;;;6.30;3.33;;;;;;;14.37;100.00;101386.53;5005943;28;20031;-79
2023/04/15 10:23:33;;;;;;;5.05;3.92;;;;;;;14.48;100.00;101389.41;5009370;28;20049;-78
2023/04/15 10:26:00;;;;;;;9.40;4.32;;;;;;;14.92;100.00;101390.22;4990631;28;20034;-80
2023/04/15 10:28:26;;;;;;;8.90;4.57;;;;;;;14.56;100.00;101396.97;5005578;28;20038;-81
2023/04/15 10:30:53;;;;;;;5.97;4.00;;;;;;;14.27;100.00;101402.34;4996939;28;20376;-83
2023/04/15 10:33:22;;;;;;;9.93;4.55;;;;;;;14.67;100.00;101416.00;5033171;28;20033;-86
2023/04/15 10:35:50;;;;;;;7.65;4.50;;;;;;;15.05;100.00;101409.97;5010470;28;20041;-84
2023/04/15 10:38:38;;;;;;;12.70;5.30;;;;;;;15.72;100.00;101405.59;4997873;28;20380;-83
2023/04/15 10:41:18;;;;;;;9.02;4.72;;;;;;;16.23;100.00;101411.94;5006300;28;20038;-83
2023/04/15 10:43:49;;;;;;;9.90;5.30;;;;;;;16.07;100.00;101409.44;4989516;28;20052;-83
2023/04/15 10:46:20;;;;;;;8.85;5.22;;;;;;;16.35;100.00;101422.81;4973344;28;20038;-83
2023/04/15 10:48:51;;;;;;;9.85;5.10;;;;;;;16.05;100.00;101422.16;4992804;28;20042;-82
2023/04/15 10:51:29;;;;;;;8.10;5.65;;;;;;;16.16;100.00;101417.81;4995830;28;20045;-84
2023/04/15 10:53:58;;;;;;;8.25;5.10;;;;;;;16.07;100.00;101430.97;5010232;28;20030;-83
2023/04/15 10:56:25;;;;;;;8.20;5.40;;;;;;;15.70;100.00;101421.84;5034581;28;20032;-84
2023/04/15 10:58:51;;;;;;;7.90;4.78;;;;;;;15.73;100.00;101431.53;5011989;28;20379;-84
2023/04/15 11:01:22;;;;;;;11.18;5.40;;;;;;;15.31;100.00;101432.47;4982912;28;20485;-84
2023/04/15 11:03:49;;;;;;;11.27;6.72;;;;;;;14.77;100.00;101436.91;4994056;28;20038;-84
2023/04/15 11:06:16;;;;;;;11.50;5.85;;;;;;;14.51;100.00;101431.31;4976809;28;20039;-83
2023/04/15 11:08:57;;;;;;;8.85;6.20;;;;;;;15.03;100.00;101433.41;4994884;28;20048;-84
2023/04/15 11:12:03;;;;;;;9.75;5.43;;;;;;;14.80;100.00;101437.59;4992764;28;20514;-84
2023/04/15 11:14:29;;;;;;;13.07;5.95;;;;;;;14.67;100.00;101442.03;4997733;28;20609;-83